sensor_id;sensor_type;location;lat;lon;timestamp;pressure;altitude;pressure_sealevel;temperature;humidity
6020;BME280;3038;51.122;6.840;2022-07-10T00:01:25;102303.06;;;14.31;66.28
6020;BME280;3038;51.122;6.840;2022-07-10T00:03:51;102303.16;;;14.25;66.91
6020;BME280;3038;51.122;6.840;2022-07-10T00:06:16;102304.91;;;14.21;67.15
6020;BME280;3038;51.122;6.840;2022-07-10T00:08:42;102298.06;;;14.18;66.90
6020;BME280;3038;51.122;6.840;2022-07-10T00:11:11;102303.41;;;14.08;67.34
6020;BME280;3038;51.122;6.840;2022-07-10T00:13:37;102300.97;;;13.95;67.88
6020;BME280;3038;51.122;6.840;2022-07-10T00:16:02;102303.63;;;13.91;68.31
6020;BME280;3038;51.122;6.840;2022-07-10T00:18:30;102298.47;;;13.91;69.37
6020;BME280;3038;51.122;6.840;2022-07-10T00:20:56;102294.22;;;13.87;69.05
6020;BME280;3038;51.122;6.840;2022-07-10T00:23:21;102295.03;;;13.89;69.38
6020;BME280;3038;51.122;6.840;2022-07-10T00:25:47;102297.66;;;13.87;69.25
6020;BME280;3038;51.122;6.840;2022-07-10T00:28:12;102295.91;;;13.88;69.48
6020;BME280;3038;51.122;6.840;2022-07-10T00:30:37;102295.06;;;13.87;69.63
6020;BME280;3038;51.122;6.840;2022-07-10T00:33:04;102295.88;;;13.89;69.64
6020;BME280;3038;51.122;6.840;2022-07-10T00:35:29;102295.88;;;13.91;69.37
6020;BME280;3038;51.122;6.840;2022-07-10T00:37:55;102295.88;;;13.91;69.53
6020;BME280;3038;51.122;6.840;2022-07-10T00:40:20;102291.56;;;13.88;69.86
6020;BME280;3038;51.122;6.840;2022-07-10T00:42:46;102295.09;;;13.84;69.96
6020;BME280;3038;51.122;6.840;2022-07-10T00:45:11;102302.81;;;13.86;69.89
6020;BME280;3038;51.122;6.840;2022-07-10T00:47:37;102295.06;;;13.87;69.79
6020;BME280;3038;51.122;6.840;2022-07-10T00:50:03;102293.28;;;13.91;69.97
6020;BME280;3038;51.122;6.840;2022-07-10T00:52:29;102294.06;;;13.96;70.06
6020;BME280;3038;51.122;6.840;2022-07-10T00:54:55;102293.09;;;14.03;69.58
6020;BME280;3038;51.122;6.840;2022-07-10T00:57:21;102288.72;;;14.07;69.61
6020;BME280;3038;51.122;6.840;2022-07-10T00:59:48;102283.47;;;14.13;69.50
6020;BME280;3038;51.122;6.840;2022-07-10T01:02:14;102286.78;;;14.21;69.46
6020;BME280;3038;51.122;6.840;2022-07-10T01:04:41;102284.97;;;14.28;68.84
6020;BME280;3038;51.122;6.840;2022-07-10T01:07:06;102283.19;;;14.31;68.61
6020;BME280;3038;51.122;6.840;2022-07-10T01:09:33;102278.88;;;14.30;68.63
6020;BME280;3038;51.122;6.840;2022-07-10T01:12:00;102275.34;;;14.36;68.04
6020;BME280;3038;51.122;6.840;2022-07-10T01:14:28;102268.47;;;14.35;67.91
6020;BME280;3038;51.122;6.840;2022-07-10T01:16:53;102270.16;;;14.37;67.86
6020;BME280;3038;51.122;6.840;2022-07-10T01:19:20;102270.97;;;14.41;67.64
6020;BME280;3038;51.122;6.840;2022-07-10T01:21:45;102270.91;;;14.43;67.18
6020;BME280;3038;51.122;6.840;2022-07-10T01:24:10;102255.34;;;14.44;67.01
6020;BME280;3038;51.122;6.840;2022-07-10T01:26:37;102247.56;;;14.46;67.00
6020;BME280;3038;51.122;6.840;2022-07-10T01:29:04;102251.00;;;14.46;66.87
6020;BME280;3038;51.122;6.840;2022-07-10T01:31:30;102251.00;;;14.48;66.93
6020;BME280;3038;51.122;6.840;2022-07-10T01:33:56;102247.50;;;14.49;66.88
6020;BME280;3038;51.122;6.840;2022-07-10T01:36:23;102244.88;;;14.52;66.57
6020;BME280;3038;51.122;6.840;2022-07-10T01:38:53;102243.13;;;14.52;66.79
6020;BME280;3038;51.122;6.840;2022-07-10T01:41:18;102237.06;;;14.53;66.55
6020;BME280;3038;51.122;6.840;2022-07-10T01:43:44;102243.22;;;14.48;66.67
6020;BME280;3038;51.122;6.840;2022-07-10T01:46:11;102247.53;;;14.47;67.07
6020;BME280;3038;51.122;6.840;2022-07-10T01:48:40;102250.00;;;14.55;67.01
6020;BME280;3038;51.122;6.840;2022-07-10T01:51:06;102236.22;;;14.56;67.16
6020;BME280;3038;51.122;6.840;2022-07-10T01:53:32;102236.22;;;14.56;67.17
6020;BME280;3038;51.122;6.840;2022-07-10T01:55:59;102239.69;;;14.52;67.32
6020;BME280;3038;51.122;6.840;2022-07-10T01:58:25;102240.56;;;14.51;67.22
6020;BME280;3038;51.122;6.840;2022-07-10T02:00:51;102244.81;;;14.58;67.33
6020;BME280;3038;51.122;6.840;2022-07-10T02:03:16;102237.03;;;14.55;67.17
6020;BME280;3038;51.122;6.840;2022-07-10T02:06:00;102237.09;;;14.52;67.22
6020;BME280;3038;51.122;6.840;2022-07-10T02:08:25;102229.34;;;14.50;67.39
6020;BME280;3038;51.122;6.840;2022-07-10T02:10:51;102231.22;;;14.44;67.80
6020;BME280;3038;51.122;6.840;2022-07-10T02:13:17;102227.78;;;14.42;67.73
6020;BME280;3038;51.122;6.840;2022-07-10T02:15:48;102227.00;;;14.36;67.66
6020;BME280;3038;51.122;6.840;2022-07-10T02:18:13;102223.66;;;14.30;68.05
6020;BME280;3038;51.122;6.840;2022-07-10T02:20:39;102230.69;;;14.22;68.42
6020;BME280;3038;51.122;6.840;2022-07-10T02:23:05;102232.63;;;14.09;68.44
6020;BME280;3038;51.122;6.840;2022-07-10T02:25:32;102220.78;;;13.95;68.68
6020;BME280;3038;51.122;6.840;2022-07-10T02:27:57;102226.13;;;13.83;69.42
6020;BME280;3038;51.122;6.840;2022-07-10T02:30:23;102217.63;;;13.73;69.70
6020;BME280;3038;51.122;6.840;2022-07-10T02:32:48;102214.34;;;13.62;70.18
6020;BME280;3038;51.122;6.840;2022-07-10T02:35:13;102210.19;;;13.53;70.70
6020;BME280;3038;51.122;6.840;2022-07-10T02:37:39;102212.84;;;13.47;71.15
6020;BME280;3038;51.122;6.840;2022-07-10T02:40:05;102212.88;;;13.43;70.78
6020;BME280;3038;51.122;6.840;2022-07-10T02:42:30;102213.84;;;13.34;71.55
6020;BME280;3038;51.122;6.840;2022-07-10T02:44:56;102222.44;;;13.36;71.17
6020;BME280;3038;51.122;6.840;2022-07-10T02:47:21;102223.25;;;13.41;72.14
6020;BME280;3038;51.122;6.840;2022-07-10T02:49:46;102220.59;;;13.47;71.16
6020;BME280;3038;51.122;6.840;2022-07-10T02:52:12;102216.22;;;13.52;71.69
6020;BME280;3038;51.122;6.840;2022-07-10T02:54:37;102222.19;;;13.56;71.88
6020;BME280;3038;51.122;6.840;2022-07-10T02:57:03;102225.50;;;13.66;71.34
6020;BME280;3038;51.122;6.840;2022-07-10T02:59:28;102221.97;;;13.71;71.54
6020;BME280;3038;51.122;6.840;2022-07-10T03:01:54;102222.88;;;13.70;71.61
6020;BME280;3038;51.122;6.840;2022-07-10T03:04:19;102227.94;;;13.76;71.74
6020;BME280;3038;51.122;6.840;2022-07-10T03:06:44;102221.03;;;13.77;71.77
6020;BME280;3038;51.122;6.840;2022-07-10T03:09:10;102230.41;;;13.84;71.13
6020;BME280;3038;51.122;6.840;2022-07-10T03:11:35;102228.66;;;13.86;71.19
6020;BME280;3038;51.122;6.840;2022-07-10T03:14:01;102238.16;;;13.86;70.91
6020;BME280;3038;51.122;6.840;2022-07-10T03:16:26;102235.63;;;13.83;71.22
6020;BME280;3038;51.122;6.840;2022-07-10T03:18:51;102233.88;;;13.83;71.25
6020;BME280;3038;51.122;6.840;2022-07-10T03:21:17;102231.31;;;13.83;71.39
6020;BME280;3038;51.122;6.840;2022-07-10T03:23:42;102233.81;;;13.86;71.49
6020;BME280;3038;51.122;6.840;2022-07-10T03:26:08;102238.22;;;13.83;71.49
6020;BME280;3038;51.122;6.840;2022-07-10T03:28:33;102235.56;;;13.87;71.19
6020;BME280;3038;51.122;6.840;2022-07-10T03:30:59;102230.31;;;13.90;71.56
6020;BME280;3038;51.122;6.840;2022-07-10T03:33:24;102231.13;;;13.94;71.25
6020;BME280;3038;51.122;6.840;2022-07-10T03:35:49;102238.97;;;13.91;71.48
6020;BME280;3038;51.122;6.840;2022-07-10T03:38:15;102233.75;;;13.92;71.65
6020;BME280;3038;51.122;6.840;2022-07-10T03:40:40;102238.91;;;13.92;71.79
6020;BME280;3038;51.122;6.840;2022-07-10T03:43:05;102235.50;;;13.90;72.04
6020;BME280;3038;51.122;6.840;2022-07-10T03:45:31;102233.75;;;13.92;71.73
6020;BME280;3038;51.122;6.840;2022-07-10T03:47:56;102232.81;;;13.96;71.97
6020;BME280;3038;51.122;6.840;2022-07-10T03:50:22;102238.00;;;13.96;71.80
6020;BME280;3038;51.122;6.840;2022-07-10T03:52:47;102231.06;;;13.97;71.59
6020;BME280;3038;51.122;6.840;2022-07-10T03:55:13;102223.38;;;13.92;71.76
6020;BME280;3038;51.122;6.840;2022-07-10T03:57:38;102224.38;;;13.84;71.88
6020;BME280;3038;51.122;6.840;2022-07-10T04:00:23;102230.59;;;13.72;72.36
6020;BME280;3038;51.122;6.840;2022-07-10T04:02:57;102226.41;;;13.63;73.19
6020;BME280;3038;51.122;6.840;2022-07-10T04:05:23;102220.44;;;13.58;72.66
6020;BME280;3038;51.122;6.840;2022-07-10T04:07:48;102223.03;;;13.56;72.81
6020;BME280;3038;51.122;6.840;2022-07-10T04:10:14;102222.22;;;13.54;73.05
6020;BME280;3038;51.122;6.840;2022-07-10T04:12:39;102223.03;;;13.60;73.08
6020;BME280;3038;51.122;6.840;2022-07-10T04:15:05;102222.13;;;13.62;73.37
6020;BME280;3038;51.122;6.840;2022-07-10T04:17:30;102224.69;;;13.64;73.28
6020;BME280;3038;51.122;6.840;2022-07-10T04:19:58;102227.16;;;13.71;73.25
6020;BME280;3038;51.122;6.840;2022-07-10T04:22:23;102230.63;;;13.70;73.68
6020;BME280;3038;51.122;6.840;2022-07-10T04:24:50;102222.81;;;13.73;73.88
6020;BME280;3038;51.122;6.840;2022-07-10T04:27:15;102230.50;;;13.78;73.00
6020;BME280;3038;51.122;6.840;2022-07-10T04:29:42;102231.19;;;13.91;73.47
6020;BME280;3038;51.122;6.840;2022-07-10T04:32:08;102230.16;;;14.01;73.20
6020;BME280;3038;51.122;6.840;2022-07-10T04:34:33;102230.97;;;14.03;72.49
6020;BME280;3038;51.122;6.840;2022-07-10T04:36:59;102236.16;;;14.03;72.65
6020;BME280;3038;51.122;6.840;2022-07-10T04:39:25;102243.78;;;14.12;72.55
6020;BME280;3038;51.122;6.840;2022-07-10T04:41:51;102242.81;;;14.19;72.46
6020;BME280;3038;51.122;6.840;2022-07-10T04:44:16;102236.63;;;14.28;72.42
6020;BME280;3038;51.122;6.840;2022-07-10T04:46:42;102238.28;;;14.32;72.41
6020;BME280;3038;51.122;6.840;2022-07-10T04:49:07;102234.81;;;14.33;72.58
6020;BME280;3038;51.122;6.840;2022-07-10T04:51:32;102233.81;;;14.42;72.49
6020;BME280;3038;51.122;6.840;2022-07-10T04:53:58;102233.75;;;14.45;71.93
6020;BME280;3038;51.122;6.840;2022-07-10T04:56:23;102240.72;;;14.42;71.89
6020;BME280;3038;51.122;6.840;2022-07-10T04:58:48;102233.06;;;14.35;72.47
6020;BME280;3038;51.122;6.840;2022-07-10T05:01:14;102233.00;;;14.38;72.26
6020;BME280;3038;51.122;6.840;2022-07-10T05:03:39;102239.84;;;14.43;72.43
6020;BME280;3038;51.122;6.840;2022-07-10T05:06:04;102237.97;;;14.51;71.95
6020;BME280;3038;51.122;6.840;2022-07-10T05:08:30;102240.56;;;14.49;72.00
6020;BME280;3038;51.122;6.840;2022-07-10T05:10:55;102241.47;;;14.50;71.96
6020;BME280;3038;51.122;6.840;2022-07-10T05:13:20;102244.72;;;14.61;72.09
6020;BME280;3038;51.122;6.840;2022-07-10T05:15:46;102249.69;;;14.73;71.66
6020;BME280;3038;51.122;6.840;2022-07-10T05:18:15;102247.03;;;14.76;71.25
6020;BME280;3038;51.122;6.840;2022-07-10T05:20:40;102250.41;;;14.82;71.20
6020;BME280;3038;51.122;6.840;2022-07-10T05:23:09;102240.78;;;14.88;70.94
6020;BME280;3038;51.122;6.840;2022-07-10T05:25:34;102243.34;;;14.90;70.61
6020;BME280;3038;51.122;6.840;2022-07-10T05:27:59;102246.75;;;14.93;70.64
6020;BME280;3038;51.122;6.840;2022-07-10T05:30:25;102240.53;;;15.02;71.26
6020;BME280;3038;51.122;6.840;2022-07-10T05:32:50;102238.59;;;15.12;70.56
6020;BME280;3038;51.122;6.840;2022-07-10T05:35:15;102242.94;;;15.10;69.72
6020;BME280;3038;51.122;6.840;2022-07-10T05:37:41;102252.34;;;15.15;69.57
6020;BME280;3038;51.122;6.840;2022-07-10T05:40:07;102247.31;;;15.08;69.46
6020;BME280;3038;51.122;6.840;2022-07-10T05:42:34;102250.56;;;15.19;69.44
6020;BME280;3038;51.122;6.840;2022-07-10T05:44:59;102253.75;;;15.32;68.94
6020;BME280;3038;51.122;6.840;2022-07-10T05:47:25;102248.38;;;15.41;68.59
6020;BME280;3038;51.122;6.840;2022-07-10T05:49:50;102251.34;;;15.65;68.35
6020;BME280;3038;51.122;6.840;2022-07-10T05:52:15;102257.75;;;15.87;67.87
6020;BME280;3038;51.122;6.840;2022-07-10T05:54:41;102261.91;;;15.96;66.92
6020;BME280;3038;51.122;6.840;2022-07-10T05:57:06;102255.78;;;15.98;66.66
6020;BME280;3038;51.122;6.840;2022-07-10T05:59:35;102261.59;;;16.08;66.66
6020;BME280;3038;51.122;6.840;2022-07-10T06:02:03;102260.47;;;16.20;65.85
6020;BME280;3038;51.122;6.840;2022-07-10T06:04:29;102263.31;;;16.09;66.36
6020;BME280;3038;51.122;6.840;2022-07-10T06:06:54;102252.44;;;15.93;66.37
6020;BME280;3038;51.122;6.840;2022-07-10T06:09:19;102260.56;;;15.79;66.75
6020;BME280;3038;51.122;6.840;2022-07-10T06:11:45;102252.94;;;15.70;66.94
6020;BME280;3038;51.122;6.840;2022-07-10T06:14:13;102255.59;;;15.67;66.57
6020;BME280;3038;51.122;6.840;2022-07-10T06:16:38;102246.06;;;15.68;66.54
6020;BME280;3038;51.122;6.840;2022-07-10T06:19:04;102252.09;;;15.68;66.43
6020;BME280;3038;51.122;6.840;2022-07-10T06:21:29;102245.19;;;15.69;65.92
6020;BME280;3038;51.122;6.840;2022-07-10T06:23:55;102254.44;;;15.82;65.90
6020;BME280;3038;51.122;6.840;2022-07-10T06:26:20;102250.31;;;16.11;65.33
6020;BME280;3038;51.122;6.840;2022-07-10T06:28:45;102261.16;;;16.27;65.27
6020;BME280;3038;51.122;6.840;2022-07-10T06:31:11;102257.59;;;16.31;64.24
6020;BME280;3038;51.122;6.840;2022-07-10T06:33:37;102261.97;;;16.29;64.32
6020;BME280;3038;51.122;6.840;2022-07-10T06:36:03;102262.34;;;16.15;64.52
6020;BME280;3038;51.122;6.840;2022-07-10T06:38:28;102257.38;;;16.04;65.38
6020;BME280;3038;51.122;6.840;2022-07-10T06:40:54;102265.16;;;16.04;65.42
6020;BME280;3038;51.122;6.840;2022-07-10T06:43:19;102267.88;;;15.99;65.05
6020;BME280;3038;51.122;6.840;2022-07-10T06:45:45;102263.50;;;16.01;65.34
6020;BME280;3038;51.122;6.840;2022-07-10T06:48:10;102267.81;;;16.03;65.58
6020;BME280;3038;51.122;6.840;2022-07-10T06:50:36;102261.09;;;15.94;65.84
6020;BME280;3038;51.122;6.840;2022-07-10T06:53:03;102265.41;;;15.93;66.46
6020;BME280;3038;51.122;6.840;2022-07-10T06:55:29;102264.25;;;16.07;66.43
6020;BME280;3038;51.122;6.840;2022-07-10T06:57:55;102264.44;;;16.35;66.03
6020;BME280;3038;51.122;6.840;2022-07-10T07:00:21;102263.94;;;16.55;65.02
6020;BME280;3038;51.122;6.840;2022-07-10T07:02:47;102261.94;;;16.65;64.71
6020;BME280;3038;51.122;6.840;2022-07-10T07:05:12;102257.34;;;16.76;64.94
6020;BME280;3038;51.122;6.840;2022-07-10T07:07:38;102253.00;;;16.75;64.36
6020;BME280;3038;51.122;6.840;2022-07-10T07:10:04;102260.25;;;16.64;64.31
6020;BME280;3038;51.122;6.840;2022-07-10T07:12:30;102259.16;;;16.72;64.58
6020;BME280;3038;51.122;6.840;2022-07-10T07:14:56;102269.56;;;16.71;64.31
6020;BME280;3038;51.122;6.840;2022-07-10T07:17:21;102264.53;;;16.65;64.02
6020;BME280;3038;51.122;6.840;2022-07-10T07:19:51;102264.91;;;16.51;64.73
6020;BME280;3038;51.122;6.840;2022-07-10T07:22:36;102273.44;;;16.56;64.47
6020;BME280;3038;51.122;6.840;2022-07-10T07:25:21;102266.38;;;16.61;64.32
6020;BME280;3038;51.122;6.840;2022-07-10T07:27:46;102272.50;;;16.58;64.28
6020;BME280;3038;51.122;6.840;2022-07-10T07:30:13;102268.25;;;16.54;63.90
6020;BME280;3038;51.122;6.840;2022-07-10T07:32:40;102267.28;;;16.58;63.71
6020;BME280;3038;51.122;6.840;2022-07-10T07:35:07;102271.00;;;16.84;62.87
6020;BME280;3038;51.122;6.840;2022-07-10T07:37:39;102267.44;;;16.88;61.94
6020;BME280;3038;51.122;6.840;2022-07-10T07:40:06;102269.09;;;16.91;62.11
6020;BME280;3038;51.122;6.840;2022-07-10T07:42:32;102265.59;;;16.92;62.38
6020;BME280;3038;51.122;6.840;2022-07-10T07:44:58;102274.53;;;16.81;62.41
6020;BME280;3038;51.122;6.840;2022-07-10T07:47:23;102280.91;;;16.68;63.20
6020;BME280;3038;51.122;6.840;2022-07-10T07:49:48;102275.84;;;16.64;62.86
6020;BME280;3038;51.122;6.840;2022-07-10T07:52:14;102282.94;;;16.57;63.17
6020;BME280;3038;51.122;6.840;2022-07-10T07:54:40;102282.06;;;16.56;62.92
6020;BME280;3038;51.122;6.840;2022-07-10T07:57:05;102282.88;;;16.58;62.64
6020;BME280;3038;51.122;6.840;2022-07-10T07:59:31;102283.66;;;16.62;62.93
6020;BME280;3038;51.122;6.840;2022-07-10T08:01:56;102279.97;;;16.71;62.28
6020;BME280;3038;51.122;6.840;2022-07-10T08:04:22;102285.56;;;16.55;63.29
6020;BME280;3038;51.122;6.840;2022-07-10T08:06:47;102283.28;;;16.43;63.58
6020;BME280;3038;51.122;6.840;2022-07-10T08:09:12;102284.13;;;16.44;63.38
6020;BME280;3038;51.122;6.840;2022-07-10T08:11:38;102290.13;;;16.46;63.82
6020;BME280;3038;51.122;6.840;2022-07-10T08:14:04;102283.78;;;16.57;64.06
6020;BME280;3038;51.122;6.840;2022-07-10T08:16:29;102271.34;;;16.70;63.50
6020;BME280;3038;51.122;6.840;2022-07-10T08:18:54;102280.28;;;16.58;63.89
6020;BME280;3038;51.122;6.840;2022-07-10T08:21:20;102284.72;;;16.55;64.28
6020;BME280;3038;51.122;6.840;2022-07-10T08:23:47;102273.53;;;16.53;64.49
6020;BME280;3038;51.122;6.840;2022-07-10T08:26:13;102278.41;;;16.65;64.37
6020;BME280;3038;51.122;6.840;2022-07-10T08:28:38;102284.03;;;16.83;63.83
6020;BME280;3038;51.122;6.840;2022-07-10T08:31:03;102283.78;;;16.92;63.96
6020;BME280;3038;51.122;6.840;2022-07-10T08:33:29;102282.34;;;16.80;64.26
6020;BME280;3038;51.122;6.840;2022-07-10T08:35:54;102285.13;;;16.72;64.60
6020;BME280;3038;51.122;6.840;2022-07-10T08:38:24;102280.84;;;16.71;64.87
6020;BME280;3038;51.122;6.840;2022-07-10T08:40:49;102274.59;;;16.78;65.02
6020;BME280;3038;51.122;6.840;2022-07-10T08:43:16;102275.88;;;16.96;64.41
6020;BME280;3038;51.122;6.840;2022-07-10T08:45:41;102278.50;;;17.28;63.80
6020;BME280;3038;51.122;6.840;2022-07-10T08:48:08;102271.03;;;17.15;63.35
6020;BME280;3038;51.122;6.840;2022-07-10T08:50:38;102277.94;;;16.84;64.91
6020;BME280;3038;51.122;6.840;2022-07-10T08:53:13;102273.34;;;16.93;64.73
6020;BME280;3038;51.122;6.840;2022-07-10T08:55:41;102281.59;;;17.09;64.57
6020;BME280;3038;51.122;6.840;2022-07-10T08:58:08;102269.34;;;17.13;64.74
6020;BME280;3038;51.122;6.840;2022-07-10T09:00:35;102268.88;;;17.30;64.67
6020;BME280;3038;51.122;6.840;2022-07-10T09:03:00;102270.59;;;17.59;64.35
6020;BME280;3038;51.122;6.840;2022-07-10T09:05:26;102269.72;;;17.60;64.03
6020;BME280;3038;51.122;6.840;2022-07-10T09:07:52;102272.00;;;17.71;64.66
6020;BME280;3038;51.122;6.840;2022-07-10T09:10:24;102267.38;;;17.80;64.00
6020;BME280;3038;51.122;6.840;2022-07-10T09:12:57;102264.53;;;18.16;62.86
6020;BME280;3038;51.122;6.840;2022-07-10T09:15:24;102261.72;;;18.49;62.63
6020;BME280;3038;51.122;6.840;2022-07-10T09:17:52;102263.47;;;18.99;61.33
6020;BME280;3038;51.122;6.840;2022-07-10T09:20:47;102256.38;;;19.26;60.24
6020;BME280;3038;51.122;6.840;2022-07-10T09:23:22;102253.72;;;19.28;60.64
6020;BME280;3038;51.122;6.840;2022-07-10T09:25:52;102262.13;;;19.12;60.84
6020;BME280;3038;51.122;6.840;2022-07-10T09:28:19;102260.03;;;19.22;59.88
6020;BME280;3038;51.122;6.840;2022-07-10T09:30:45;102251.25;;;19.24;60.14
6020;BME280;3038;51.122;6.840;2022-07-10T09:33:30;102250.19;;;18.81;61.02
6020;BME280;3038;51.122;6.840;2022-07-10T09:35:57;102252.31;;;18.18;61.81
6020;BME280;3038;51.122;6.840;2022-07-10T09:41:24;102261.56;;;17.42;64.72
6020;BME280;3038;51.122;6.840;2022-07-10T09:43:57;102254.06;;;17.61;64.44
6020;BME280;3038;51.122;6.840;2022-07-10T09:46:25;102252.75;;;17.76;63.78
6020;BME280;3038;51.122;6.840;2022-07-10T09:49:02;102251.34;;;17.94;63.39
6020;BME280;3038;51.122;6.840;2022-07-10T09:51:30;102253.75;;;18.00;63.66
6020;BME280;3038;51.122;6.840;2022-07-10T09:54:00;102259.59;;;17.79;63.92
6020;BME280;3038;51.122;6.840;2022-07-10T09:56:26;102261.88;;;17.61;64.60
6020;BME280;3038;51.122;6.840;2022-07-10T09:58:59;102255.94;;;17.56;65.34
6020;BME280;3038;51.122;6.840;2022-07-10T10:01:27;102254.41;;;17.79;64.65
6020;BME280;3038;51.122;6.840;2022-07-10T10:03:53;102256.03;;;17.83;64.42
6020;BME280;3038;51.122;6.840;2022-07-10T10:06:21;102255.66;;;17.95;64.06
6020;BME280;3038;51.122;6.840;2022-07-10T10:11:41;102247.59;;;18.03;63.93
6020;BME280;3038;51.122;6.840;2022-07-10T10:14:09;102245.00;;;18.03;64.15
6020;BME280;3038;51.122;6.840;2022-07-10T10:16:35;102248.13;;;17.86;64.00
6020;BME280;3038;51.122;6.840;2022-07-10T10:19:02;102242.22;;;17.79;64.49
6020;BME280;3038;51.122;6.840;2022-07-10T10:21:46;102240.91;;;17.66;65.15
6020;BME280;3038;51.122;6.840;2022-07-10T10:24:13;102243.56;;;17.65;66.28
6020;BME280;3038;51.122;6.840;2022-07-10T10:26:40;102247.03;;;17.93;66.10
6020;BME280;3038;51.122;6.840;2022-07-10T10:29:06;102240.88;;;18.49;65.22
6020;BME280;3038;51.122;6.840;2022-07-10T10:31:32;102240.72;;;19.26;63.73
6020;BME280;3038;51.122;6.840;2022-07-10T10:33:58;102235.19;;;19.81;61.77
6020;BME280;3038;51.122;6.840;2022-07-10T10:36:46;102230.53;;;19.65;61.51
6020;BME280;3038;51.122;6.840;2022-07-10T10:39:16;102230.16;;;19.31;61.83
6020;BME280;3038;51.122;6.840;2022-07-10T10:41:45;102230.84;;;19.12;62.78
6020;BME280;3038;51.122;6.840;2022-07-10T10:49:17;102217.81;;;19.80;61.22
6020;BME280;3038;51.122;6.840;2022-07-10T10:52:02;102215.97;;;19.82;59.44
6020;BME280;3038;51.122;6.840;2022-07-10T10:57:42;102221.44;;;18.58;62.47
6020;BME280;3038;51.122;6.840;2022-07-10T11:00:14;102213.94;;;18.49;63.16
6020;BME280;3038;51.122;6.840;2022-07-10T11:02:43;102215.09;;;18.15;64.43
6020;BME280;3038;51.122;6.840;2022-07-10T11:08:04;102212.47;;;18.41;65.00
6020;BME280;3038;51.122;6.840;2022-07-10T11:10:37;102209.41;;;18.29;65.06
6020;BME280;3038;51.122;6.840;2022-07-10T11:13:12;102208.28;;;18.11;65.34
6020;BME280;3038;51.122;6.840;2022-07-10T11:15:40;102210.75;;;17.89;66.14
6020;BME280;3038;51.122;6.840;2022-07-10T11:18:11;102207.78;;;17.99;66.51
6020;BME280;3038;51.122;6.840;2022-07-10T11:20:48;102207.09;;;18.19;66.27
6020;BME280;3038;51.122;6.840;2022-07-10T11:26:24;102208.84;;;18.46;65.36
6020;BME280;3038;51.122;6.840;2022-07-10T11:28:57;102200.97;;;18.72;65.43
6020;BME280;3038;51.122;6.840;2022-07-10T11:31:24;102204.75;;;18.89;64.58
6020;BME280;3038;51.122;6.840;2022-07-10T11:33:52;102200.03;;;18.73;64.70
6020;BME280;3038;51.122;6.840;2022-07-10T11:36:18;102205.81;;;18.58;65.40
6020;BME280;3038;51.122;6.840;2022-07-10T11:38:44;102196.22;;;18.58;65.46
6020;BME280;3038;51.122;6.840;2022-07-10T11:41:18;102196.81;;;18.41;66.19
6020;BME280;3038;51.122;6.840;2022-07-10T11:43:52;102197.28;;;18.28;67.30
6020;BME280;3038;51.122;6.840;2022-07-10T11:46:20;102201.41;;;18.08;67.35
6020;BME280;3038;51.122;6.840;2022-07-10T11:48:47;102201.13;;;17.91;67.98
6020;BME280;3038;51.122;6.840;2022-07-10T11:51:18;102200.25;;;17.90;68.36
6020;BME280;3038;51.122;6.840;2022-07-10T11:54:03;102198.53;;;17.61;70.35
6020;BME280;3038;51.122;6.840;2022-07-10T11:56:33;102200.06;;;17.40;69.61
6020;BME280;3038;51.122;6.840;2022-07-10T11:59:04;102201.19;;;17.31;70.26
6020;BME280;3038;51.122;6.840;2022-07-10T12:01:34;102192.97;;;17.45;70.22
6020;BME280;3038;51.122;6.840;2022-07-10T12:04:05;102188.41;;;17.53;71.77
6020;BME280;3038;51.122;6.840;2022-07-10T12:06:34;102200.47;;;17.84;71.47
6020;BME280;3038;51.122;6.840;2022-07-10T12:09:08;102189.16;;;18.37;71.10
6020;BME280;3038;51.122;6.840;2022-07-10T12:11:34;102193.66;;;18.82;69.40
6020;BME280;3038;51.122;6.840;2022-07-10T12:14:11;102195.25;;;18.86;69.19
6020;BME280;3038;51.122;6.840;2022-07-10T12:16:38;102189.25;;;18.84;67.71
6020;BME280;3038;51.122;6.840;2022-07-10T12:19:06;102193.44;;;18.88;67.74
6020;BME280;3038;51.122;6.840;2022-07-10T12:21:31;102194.75;;;19.00;66.78
6020;BME280;3038;51.122;6.840;2022-07-10T12:23:58;102194.06;;;18.95;66.26
6020;BME280;3038;51.122;6.840;2022-07-10T12:26:35;102194.75;;;19.00;65.97
6020;BME280;3038;51.122;6.840;2022-07-10T12:29:01;102192.59;;;19.11;65.74
6020;BME280;3038;51.122;6.840;2022-07-10T12:31:29;102200.59;;;19.07;65.55
6020;BME280;3038;51.122;6.840;2022-07-10T12:33:58;102199.22;;;18.96;65.73
6020;BME280;3038;51.122;6.840;2022-07-10T12:36:40;102198.78;;;18.60;65.44
6020;BME280;3038;51.122;6.840;2022-07-10T12:39:06;102199.16;;;18.49;66.12
6020;BME280;3038;51.122;6.840;2022-07-10T12:41:31;102197.50;;;18.47;66.39
6020;BME280;3038;51.122;6.840;2022-07-10T12:43:56;102199.03;;;18.52;66.30
6020;BME280;3038;51.122;6.840;2022-07-10T12:46:23;102195.22;;;18.62;65.86
6020;BME280;3038;51.122;6.840;2022-07-10T12:49:06;102193.81;;;18.77;65.48
6020;BME280;3038;51.122;6.840;2022-07-10T12:51:46;102202.63;;;18.98;64.76
6020;BME280;3038;51.122;6.840;2022-07-10T12:56:59;102188.31;;;19.10;63.65
6020;BME280;3038;51.122;6.840;2022-07-10T12:59:26;102192.22;;;19.44;63.33
6020;BME280;3038;51.122;6.840;2022-07-10T13:01:52;102193.41;;;19.81;62.32
6020;BME280;3038;51.122;6.840;2022-07-10T13:04:23;102188.78;;;19.88;62.10
6020;BME280;3038;51.122;6.840;2022-07-10T13:06:49;102189.47;;;19.71;61.64
6020;BME280;3038;51.122;6.840;2022-07-10T13:09:39;102183.22;;;19.51;62.10
6020;BME280;3038;51.122;6.840;2022-07-10T13:12:04;102183.06;;;19.78;62.57
6020;BME280;3038;51.122;6.840;2022-07-10T13:14:30;102178.47;;;20.05;61.40
6020;BME280;3038;51.122;6.840;2022-07-10T13:16:55;102179.53;;;20.42;60.76
6020;BME280;3038;51.122;6.840;2022-07-10T13:19:21;102172.81;;;21.52;57.52
6020;BME280;3038;51.122;6.840;2022-07-10T13:21:46;102175.88;;;22.31;55.58
6020;BME280;3038;51.122;6.840;2022-07-10T13:24:12;102165.50;;;22.45;55.12
6020;BME280;3038;51.122;6.840;2022-07-10T13:26:37;102159.25;;;22.48;53.55
6020;BME280;3038;51.122;6.840;2022-07-10T13:29:03;102164.16;;;22.54;54.54
6020;BME280;3038;51.122;6.840;2022-07-10T13:31:29;102161.53;;;22.87;53.01
6020;BME280;3038;51.122;6.840;2022-07-10T13:33:54;102159.22;;;22.65;53.51